createdAt,value
2022-08-09T00:00:21.456Z,24.80
2022-08-09T00:02:51.886Z,24.84
2022-08-09T00:06:19.038Z,24.84
2022-08-09T00:08:12.868Z,24.84
2022-08-09T00:10:59.573Z,24.81
2022-08-09T00:13:28.195Z,24.81
2022-08-09T00:16:02.667Z,24.83
2022-08-09T00:18:34.994Z,24.85
2022-08-09T00:21:08.657Z,24.85
2022-08-09T00:23:57.990Z,24.82
2022-08-09T00:26:29.995Z,24.86
2022-08-09T00:29:12.518Z,24.76
2022-08-09T00:32:00.856Z,24.76
2022-08-09T00:34:28.534Z,24.74
2022-08-09T00:37:00.756Z,24.73
2022-08-09T00:40:12.362Z,24.72
2022-08-09T00:44:19.571Z,24.71
2022-08-09T00:45:15.652Z,24.72
2022-08-09T00:47:44.006Z,24.71
2022-08-09T00:50:14.198Z,24.72
2022-08-09T00:52:42.738Z,24.72
2022-08-09T00:55:16.799Z,24.74
2022-08-09T00:57:59.304Z,24.73
2022-08-09T01:00:27.911Z,24.77
2022-08-09T01:03:02.591Z,24.76
2022-08-09T01:05:57.245Z,24.71
2022-08-09T01:08:31.881Z,24.70
2022-08-09T01:11:15.203Z,24.67
2022-08-09T01:14:03.060Z,24.63
2022-08-09T01:16:35.907Z,24.65
2022-08-09T01:19:42.903Z,24.57
2022-08-09T01:22:54.941Z,24.47
2022-08-09T01:26:05.463Z,24.40
2022-08-09T01:28:35.901Z,24.37
2022-08-09T01:31:07.967Z,24.37
2022-08-09T01:33:41.271Z,24.27
2022-08-09T01:36:13.632Z,24.31
2022-08-09T01:38:46.330Z,24.31
2022-08-09T01:41:55.564Z,24.28
2022-08-09T01:44:29.275Z,24.22
2022-08-09T01:47:00.376Z,24.20
2022-08-09T01:49:38.909Z,24.17
2022-08-09T01:52:10.418Z,24.13
2022-08-09T01:54:45.952Z,24.12
2022-08-09T01:57:20.549Z,24.12
2022-08-09T01:59:52.650Z,24.09
2022-08-09T02:02:23.888Z,24.05
2022-08-09T02:05:05.614Z,24.02
2022-08-09T02:08:35.826Z,23.99
2022-08-09T02:10:51.336Z,23.96
2022-08-09T02:13:22.136Z,23.87
2022-08-09T02:15:59.212Z,23.83
2022-08-09T02:18:29.368Z,23.83
2022-08-09T02:21:02.567Z,23.83
2022-08-09T02:23:39.727Z,23.83
2022-08-09T02:26:25.032Z,23.80
2022-08-09T02:29:03.291Z,23.81
2022-08-09T02:31:36.143Z,23.75
2022-08-09T02:34:41.014Z,23.76
2022-08-09T02:37:15.837Z,23.73
2022-08-09T02:39:55.113Z,23.71
2022-08-09T02:42:31.987Z,23.63
2022-08-09T02:45:05.103Z,23.63
2022-08-09T02:47:57.442Z,23.65
2022-08-09T02:50:29.143Z,23.57
2022-08-09T02:53:25.734Z,23.57
2022-08-09T02:55:58.689Z,23.59
2022-08-09T02:58:35.629Z,23.56
2022-08-09T03:01:08.247Z,23.50
2022-08-09T03:04:17.565Z,23.47
2022-08-09T03:06:29.410Z,23.48
2022-08-09T03:08:57.772Z,23.48
2022-08-09T03:11:30.152Z,23.46
2022-08-09T03:14:15.989Z,23.43
2022-08-09T03:16:48.290Z,23.40
2022-08-09T03:19:52.850Z,23.39
2022-08-09T03:22:12.300Z,23.34
2022-08-09T03:25:21.501Z,23.31
2022-08-09T03:27:48.193Z,23.36
2022-08-09T03:30:29.146Z,23.31
2022-08-09T03:32:59.738Z,23.27
2022-08-09T03:35:44.331Z,23.26
2022-08-09T03:38:28.549Z,23.22
2022-08-09T03:40:56.531Z,23.22
2022-08-09T03:43:23.796Z,23.18
2022-08-09T03:46:05.197Z,23.15
2022-08-09T03:48:42.931Z,23.13
2022-08-09T03:51:55.542Z,23.13
2022-08-09T03:54:14.600Z,23.12
2022-08-09T03:56:42.461Z,23.09
2022-08-09T03:59:17.114Z,23.08
2022-08-09T04:01:50.711Z,23.03
2022-08-09T04:04:18.876Z,23.02
2022-08-09T04:06:49.113Z,23.02
2022-08-09T04:09:47.410Z,23.02
2022-08-09T04:12:31.637Z,23.01
2022-08-09T04:15:01.447Z,23.01
2022-08-09T04:17:30.100Z,23.02
2022-08-09T04:19:58.866Z,23.00
2022-08-09T04:22:30.186Z,22.99
2022-08-09T04:25:00.010Z,23.02
2022-08-09T04:27:29.098Z,23.00
2022-08-09T04:29:57.259Z,23.00
2022-08-09T04:32:31.342Z,23.00
2022-08-09T04:35:01.523Z,23.01
2022-08-09T04:37:45.074Z,23.02
2022-08-09T04:40:29.034Z,23.00
2022-08-09T04:43:01.959Z,23.03
2022-08-09T04:45:31.054Z,23.04
2022-08-09T04:48:08.028Z,23.05
2022-08-09T04:50:38.312Z,23.04
2022-08-09T04:53:11.513Z,23.07
2022-08-09T04:55:58.049Z,23.06
2022-08-09T04:58:31.941Z,23.09
2022-08-09T05:01:01.450Z,23.07
2022-08-09T05:03:40.107Z,23.09
2022-08-09T05:06:21.962Z,23.10
2022-08-09T05:09:00.487Z,23.09
2022-08-09T05:11:32.387Z,23.08
2022-08-09T05:14:06.662Z,23.08
2022-08-09T05:16:43.826Z,23.05
2022-08-09T05:19:25.911Z,23.08
2022-08-09T05:21:55.322Z,23.10
2022-08-09T05:24:24.854Z,23.09
2022-08-09T05:26:53.274Z,23.05
2022-08-09T05:29:23.980Z,23.06
2022-08-09T05:31:58.444Z,23.09
2022-08-09T05:34:32.851Z,23.07
2022-08-09T05:37:04.912Z,23.07
2022-08-09T05:39:36.291Z,23.06
2022-08-09T05:42:17.294Z,23.06
2022-08-09T05:44:53.096Z,23.09
2022-08-09T05:47:22.848Z,23.09
2022-08-09T05:50:26.837Z,23.06
2022-08-09T05:52:40.324Z,23.06
2022-08-09T05:55:20.357Z,23.08
2022-08-09T05:57:56.662Z,23.11
2022-08-09T06:00:32.881Z,23.15
2022-08-09T06:03:02.174Z,23.15
2022-08-09T06:05:57.469Z,23.15
2022-08-09T06:08:24.213Z,23.15
2022-08-09T06:10:53.059Z,23.17
2022-08-09T06:13:21.301Z,23.19
2022-08-09T06:15:51.396Z,23.20
2022-08-09T06:18:25.159Z,23.23
2022-08-09T06:20:57.822Z,23.29
2022-08-09T06:23:55.745Z,23.37
2022-08-09T06:26:20.920Z,23.41
2022-08-09T06:29:00.216Z,23.46
2022-08-09T06:31:40.301Z,23.50
2022-08-09T06:34:22.811Z,23.51
2022-08-09T06:36:58.903Z,23.55
2022-08-09T06:39:48.660Z,23.61
2022-08-09T06:42:24.810Z,23.66
2022-08-09T06:44:58.861Z,23.72
2022-08-09T06:47:39.627Z,23.79
2022-08-09T06:50:13.361Z,23.85
2022-08-09T06:52:48.592Z,23.90
2022-08-09T06:55:22.440Z,23.99
2022-08-09T06:58:01.361Z,24.05
2022-08-09T07:00:54.522Z,24.11
2022-08-09T07:03:19.879Z,24.18
2022-08-09T07:06:03.423Z,24.26
2022-08-09T07:08:32.639Z,24.33
2022-08-09T07:11:03.395Z,24.37
2022-08-09T07:13:31.740Z,24.42
2022-08-09T07:16:42.295Z,24.49
2022-08-09T07:19:06.300Z,24.53
2022-08-09T07:21:35.250Z,24.57
2022-08-09T07:24:05.071Z,24.66
2022-08-09T07:26:32.956Z,24.68
2022-08-09T07:29:08.364Z,24.71
2022-08-09T07:31:44.883Z,24.77
2022-08-09T07:34:20.190Z,24.84
2022-08-09T07:36:49.280Z,24.89
2022-08-09T07:39:17.493Z,24.90
2022-08-09T07:41:48.441Z,24.91
2022-08-09T07:44:15.788Z,24.93
2022-08-09T07:46:51.335Z,24.99
2022-08-09T07:49:19.375Z,25.08
2022-08-09T07:52:05.357Z,25.13
2022-08-09T07:54:35.190Z,25.17
2022-08-09T07:57:04.508Z,25.20
2022-08-09T07:59:51.924Z,25.29
2022-08-09T08:02:26.574Z,25.31
2022-08-09T08:04:54.066Z,25.35
2022-08-09T08:08:44.262Z,25.40
2022-08-09T08:10:10.808Z,25.44
2022-08-09T08:12:42.410Z,25.48
2022-08-09T08:15:24.306Z,25.55
2022-08-09T08:17:57.987Z,25.59
2022-08-09T08:20:30.622Z,25.69
2022-08-09T08:23:16.156Z,25.72
2022-08-09T08:25:48.306Z,25.72
2022-08-09T08:28:25.578Z,25.75
2022-08-09T08:31:14.461Z,25.84
2022-08-09T08:33:52.739Z,25.84
2022-08-09T08:36:28.730Z,25.92
2022-08-09T08:38:59.677Z,25.95
2022-08-09T08:41:50.214Z,26.03
2022-08-09T08:44:23.208Z,26.10
2022-08-09T08:47:00.082Z,26.13
2022-08-09T08:49:46.432Z,26.11
2022-08-09T08:55:15.296Z,26.29
2022-08-09T08:57:56.567Z,26.33
2022-08-09T09:00:30.447Z,26.38
2022-08-09T09:03:11.694Z,26.38
2022-08-09T09:05:59.942Z,26.50
2022-08-09T09:08:37.900Z,26.57
2022-08-09T09:11:13.886Z,26.61
2022-08-09T09:13:56.933Z,26.65
2022-08-09T09:16:32.321Z,26.72
2022-08-09T09:19:37.408Z,26.79
2022-08-09T09:22:11.789Z,26.91
2022-08-09T09:24:46.821Z,27.02
2022-08-09T09:28:03.607Z,27.09
2022-08-09T09:30:32.938Z,27.14
2022-08-09T09:33:16.751Z,27.18
2022-08-09T09:36:01.565Z,27.24
2022-08-09T09:38:46.420Z,27.26
2022-08-09T09:41:22.743Z,27.28
2022-08-09T09:44:12.512Z,27.31
2022-08-09T09:46:42.861Z,27.42
2022-08-09T09:49:12.605Z,27.46
2022-08-09T09:51:40.935Z,27.52
2022-08-09T09:54:19.119Z,27.55
2022-08-09T09:58:01.002Z,27.66
2022-08-09T09:59:37.132Z,27.74
2022-08-09T10:02:04.500Z,27.78
2022-08-09T10:04:31.926Z,27.83
2022-08-09T10:07:03.612Z,27.93
2022-08-09T10:09:49.019Z,28.00
2022-08-09T10:12:31.301Z,28.07
2022-08-09T10:15:50.643Z,28.06
2022-08-09T10:18:12.420Z,28.14
2022-08-09T10:20:44.696Z,28.21
2022-08-09T10:23:17.453Z,28.24
2022-08-09T10:26:07.298Z,28.28
2022-08-09T10:28:37.590Z,28.29
2022-08-09T10:34:10.250Z,28.39
2022-08-09T10:36:50.272Z,28.43
2022-08-09T10:39:23.289Z,28.43
2022-08-09T10:41:56.000Z,28.49
2022-08-09T10:44:28.432Z,28.53
2022-08-09T10:48:11.905Z,28.58
2022-08-09T10:50:20.968Z,28.71
2022-08-09T10:53:10.489Z,28.80
2022-08-09T10:55:55.675Z,28.87
2022-08-09T10:58:34.658Z,28.99
2022-08-09T11:03:06.724Z,28.90
2022-08-09T11:04:28.158Z,28.87
2022-08-09T11:07:00.261Z,29.01
2022-08-09T11:09:41.372Z,29.12
2022-08-09T11:12:20.547Z,29.16
2022-08-09T11:14:55.911Z,29.20
2022-08-09T11:17:24.564Z,29.26
2022-08-09T11:20:10.760Z,29.36
2022-08-09T11:22:47.343Z,29.42
2022-08-09T11:25:47.102Z,29.56
2022-08-09T11:28:38.882Z,29.57
2022-08-09T11:31:49.880Z,29.60
2022-08-09T11:34:26.579Z,29.64
2022-08-09T11:36:56.816Z,29.73
2022-08-09T11:39:25.051Z,29.83
2022-08-09T11:42:08.075Z,29.88
2022-08-09T11:44:46.263Z,29.92
2022-08-09T11:47:14.570Z,29.95
2022-08-09T11:50:55.374Z,29.97
2022-08-09T11:53:16.394Z,30.03
2022-08-09T11:55:53.127Z,30.16
2022-08-09T11:58:32.666Z,30.18
2022-08-09T12:01:08.802Z,30.23
2022-08-09T12:03:57.369Z,30.28
2022-08-09T12:06:32.094Z,30.27
2022-08-09T12:09:19.674Z,30.33
2022-08-09T12:12:04.072Z,30.44
2022-08-09T12:14:37.036Z,30.51
2022-08-09T12:17:28.088Z,30.57
2022-08-09T12:20:22.206Z,30.62
2022-08-09T12:23:01.507Z,30.68
2022-08-09T12:25:37.036Z,30.67
2022-08-09T12:29:00.216Z,30.80
2022-08-09T12:31:10.862Z,30.79
2022-08-09T12:34:01.117Z,30.90
2022-08-09T12:36:33.852Z,30.77
2022-08-09T12:39:14.174Z,30.75
2022-08-09T12:42:21.182Z,30.76
2022-08-09T12:45:38.734Z,30.79
2022-08-09T12:48:56.220Z,30.83
2022-08-09T12:52:16.282Z,31.01
2022-08-09T12:56:14.701Z,31.03
2022-08-09T12:58:42.720Z,31.10
2022-08-09T13:01:22.946Z,31.13
2022-08-09T13:03:59.380Z,31.14
2022-08-09T13:06:34.820Z,31.23
2022-08-09T13:09:06.695Z,31.19
2022-08-09T13:11:39.621Z,31.19
2022-08-09T13:14:42.309Z,31.11
2022-08-09T13:17:05.198Z,31.25
2022-08-09T13:20:10.562Z,31.23
2022-08-09T13:23:01.647Z,31.28
2022-08-09T13:25:23.102Z,31.25
2022-08-09T13:27:55.994Z,31.14
2022-08-09T13:31:11.168Z,31.21
2022-08-09T13:33:22.705Z,31.18
2022-08-09T13:36:37.870Z,31.25
2022-08-09T13:38:57.904Z,31.27
2022-08-09T13:41:57.643Z,31.38
2022-08-09T13:44:16.262Z,31.48
2022-08-09T13:47:27.674Z,31.51
2022-08-09T13:49:39.485Z,31.56
2022-08-09T13:52:18.980Z,31.43
2022-08-09T13:54:59.749Z,31.50
2022-08-09T13:57:35.417Z,31.48
2022-08-09T14:00:16.985Z,31.60
2022-08-09T14:03:17.094Z,31.69
2022-08-09T14:06:01.122Z,31.64
2022-08-09T14:08:22.246Z,31.83
2022-08-09T14:10:52.137Z,31.89
2022-08-09T14:13:27.930Z,31.98
2022-08-09T14:16:14.815Z,32.11
2022-08-09T14:18:45.635Z,32.12
2022-08-09T14:21:18.602Z,32.20
2022-08-09T14:23:55.373Z,32.30
2022-08-09T14:26:32.127Z,32.42
2022-08-09T14:29:07.803Z,32.42
2022-08-09T14:31:53.420Z,32.45
2022-08-09T14:34:32.435Z,32.65
2022-08-09T14:37:02.663Z,32.79
2022-08-09T14:39:45.691Z,32.91
2022-08-09T14:42:32.026Z,32.93
2022-08-09T14:46:55.487Z,32.90
2022-08-09T14:47:58.575Z,33.03
2022-08-09T14:50:29.358Z,33.08
2022-08-09T14:52:58.603Z,33.18
2022-08-09T14:55:32.095Z,33.21
2022-08-09T14:58:03.037Z,33.26
2022-08-09T15:00:33.391Z,33.33
2022-08-09T15:03:06.552Z,33.41
2022-08-09T15:05:36.612Z,33.49
2022-08-09T15:08:05.653Z,33.49
2022-08-09T15:10:34.900Z,33.59
2022-08-09T15:13:04.023Z,33.66
2022-08-09T15:15:34.496Z,33.72
2022-08-09T15:18:13.976Z,33.90
2022-08-09T15:22:01.085Z,33.92
2022-08-09T15:23:55.864Z,34.06
2022-08-09T15:26:30.686Z,34.06
2022-08-09T15:28:58.425Z,33.99
2022-08-09T15:31:41.679Z,34.05
2022-08-09T15:34:17.227Z,34.09
2022-08-09T15:36:58.565Z,34.15
2022-08-09T15:39:34.831Z,34.21
2022-08-09T15:42:14.959Z,34.15
2022-08-09T15:44:42.393Z,34.10
2022-08-09T15:47:13.925Z,34.14
2022-08-09T15:50:00.477Z,34.19
2022-08-09T15:52:29.516Z,33.96
2022-08-09T15:54:57.526Z,34.16
2022-08-09T15:57:35.873Z,34.05
2022-08-09T16:00:25.643Z,34.11
2022-08-09T16:02:56.199Z,34.04
2022-08-09T16:05:47.082Z,34.03
2022-08-09T16:08:30.153Z,33.98
2022-08-09T16:11:01.405Z,34.05
2022-08-09T16:14:04.115Z,34.13
2022-08-09T16:16:19.691Z,33.93
2022-08-09T16:18:47.784Z,33.88
2022-08-09T16:21:16.834Z,33.76
2022-08-09T16:23:50.917Z,33.56
2022-08-09T16:26:35.254Z,33.44
2022-08-09T16:29:11.295Z,33.35
2022-08-09T16:32:18.512Z,33.20
2022-08-09T16:34:54.630Z,33.07
2022-08-09T16:37:53.720Z,32.83
2022-08-09T16:40:11.924Z,32.80
2022-08-09T16:42:45.508Z,32.71
2022-08-09T16:45:18.614Z,32.54
2022-08-09T16:48:50.585Z,32.46
2022-08-09T16:50:38.164Z,32.34
2022-08-09T16:53:05.904Z,32.16
2022-08-09T16:55:57.904Z,32.07
2022-08-09T16:58:21.035Z,31.93
2022-08-09T17:00:49.313Z,31.83
2022-08-09T17:03:21.987Z,31.76
2022-08-09T17:06:06.655Z,31.63
2022-08-09T17:08:42.899Z,31.50
2022-08-09T17:11:15.621Z,31.39
2022-08-09T17:13:45.211Z,31.28
2022-08-09T17:16:12.697Z,31.15
2022-08-09T17:18:39.916Z,30.83
2022-08-09T17:21:12.368Z,30.59
2022-08-09T17:24:27.274Z,30.26
2022-08-09T17:26:31.538Z,29.97
2022-08-09T17:29:05.572Z,29.76
2022-08-09T17:31:49.223Z,29.58
2022-08-09T17:34:38.054Z,29.43
2022-08-09T17:37:04.504Z,29.30
2022-08-09T17:39:52.933Z,29.18
2022-08-09T17:42:41.203Z,29.12
2022-08-09T17:45:15.670Z,29.01
2022-08-09T17:47:55.670Z,28.96
2022-08-09T17:50:36.975Z,28.88
2022-08-09T17:53:10.344Z,28.85
2022-08-09T17:55:49.715Z,28.77
2022-08-09T17:58:19.123Z,28.73
2022-08-09T18:00:48.288Z,28.68
2022-08-09T18:03:17.953Z,28.64
2022-08-09T18:05:52.926Z,28.59
2022-08-09T18:08:21.828Z,28.56
2022-08-09T18:11:00.769Z,28.51
2022-08-09T18:13:43.408Z,28.48
2022-08-09T18:16:28.889Z,28.45
2022-08-09T18:19:03.560Z,28.41
2022-08-09T18:21:41.202Z,28.39
2022-08-09T18:24:14.189Z,28.35
2022-08-09T18:26:46.649Z,28.33
2022-08-09T18:30:38.263Z,28.31
2022-08-09T18:32:04.913Z,28.25
2022-08-09T18:34:35.163Z,28.24
2022-08-09T18:37:04.005Z,28.20
2022-08-09T18:39:32.801Z,28.16
2022-08-09T18:42:08.091Z,28.16
2022-08-09T18:44:36.268Z,28.12
2022-08-09T18:47:07.725Z,28.08
2022-08-09T18:49:43.048Z,28.07
2022-08-09T18:52:15.751Z,28.05
2022-08-09T18:54:52.889Z,28.01
2022-08-09T18:57:22.001Z,27.99
2022-08-09T18:59:57.619Z,27.98
2022-08-09T19:02:30.755Z,27.94
2022-08-09T19:05:20.617Z,27.93
2022-08-09T19:08:04.443Z,27.89
2022-08-09T19:10:39.197Z,27.86
2022-08-09T19:13:23.407Z,27.84
2022-08-09T19:15:59.305Z,27.80
2022-08-09T19:18:35.115Z,27.78
2022-08-09T19:21:09.703Z,27.72
2022-08-09T19:24:31.981Z,27.67
2022-08-09T19:26:31.920Z,27.59
2022-08-09T19:29:15.188Z,27.55
2022-08-09T19:31:51.109Z,27.40
2022-08-09T19:34:23.035Z,27.35
2022-08-09T19:36:53.721Z,27.29
2022-08-09T19:39:43.028Z,27.24
2022-08-09T19:42:15.137Z,27.17
2022-08-09T19:44:49.241Z,27.13
2022-08-09T19:47:19.785Z,27.07
2022-08-09T19:50:08.986Z,27.01
2022-08-09T19:52:49.633Z,26.95
2022-08-09T19:55:30.480Z,26.93
2022-08-09T19:58:07.252Z,26.90
2022-08-09T20:00:45.659Z,26.89
2022-08-09T20:04:13.911Z,26.86
2022-08-09T20:06:03.259Z,26.79
2022-08-09T20:08:35.167Z,26.77
2022-08-09T20:11:04.408Z,26.75
2022-08-09T20:13:37.248Z,26.74
2022-08-09T20:16:35.773Z,26.74
2022-08-09T20:19:42.221Z,26.76
2022-08-09T20:21:56.125Z,26.79
2022-08-09T20:24:29.467Z,26.76
2022-08-09T20:27:05.629Z,26.72
2022-08-09T20:29:38.556Z,26.72
2022-08-09T20:32:30.442Z,26.70
2022-08-09T20:34:59.179Z,26.70
2022-08-09T20:37:37.327Z,26.67
2022-08-09T20:40:19.171Z,26.65
2022-08-09T20:42:59.916Z,26.66
2022-08-09T20:45:59.837Z,26.69
2022-08-09T20:48:28.915Z,26.69
2022-08-09T20:50:59.785Z,26.72
2022-08-09T20:53:36.499Z,26.73
2022-08-09T20:56:08.766Z,26.75
2022-08-09T20:58:36.525Z,26.75
2022-08-09T21:01:32.777Z,26.75
2022-08-09T21:04:08.404Z,26.75
2022-08-09T21:06:44.112Z,26.74
2022-08-09T21:09:14.148Z,26.73
2022-08-09T21:14:31.318Z,26.69
2022-08-09T21:17:00.399Z,26.60
2022-08-09T21:20:17.756Z,26.54
2022-08-09T21:22:23.118Z,26.53
2022-08-09T21:25:21.597Z,26.54
2022-08-09T21:28:01.194Z,26.56
2022-08-09T21:30:28.562Z,26.56
2022-08-09T21:32:57.202Z,26.53
2022-08-09T21:35:24.557Z,26.52
2022-08-09T21:37:58.686Z,26.47
2022-08-09T21:40:30.792Z,26.48
2022-08-09T21:43:00.713Z,26.49
2022-08-09T21:45:28.399Z,26.47
2022-08-09T21:47:58.881Z,26.44
2022-08-09T21:50:35.103Z,26.38
2022-08-09T21:53:23.850Z,26.31
2022-08-09T21:55:54.426Z,26.32
2022-08-09T21:58:21.709Z,26.28
2022-08-09T22:00:58.677Z,26.29
2022-08-09T22:03:26.309Z,26.28
2022-08-09T22:05:55.445Z,26.22
2022-08-09T22:08:28.399Z,26.21
2022-08-09T22:11:00.809Z,26.23
2022-08-09T22:13:43.872Z,26.26
2022-08-09T22:16:11.711Z,26.24
2022-08-09T22:18:54.390Z,26.20
2022-08-09T22:21:24.443Z,26.19
2022-08-09T22:23:59.185Z,26.21
2022-08-09T22:26:35.361Z,26.25
2022-08-09T22:29:10.393Z,26.26
2022-08-09T22:31:50.662Z,26.27
2022-08-09T22:34:28.574Z,26.28
2022-08-09T22:36:57.743Z,26.30
2022-08-09T22:39:57.917Z,26.29
2022-08-09T22:42:22.254Z,26.29
2022-08-09T22:45:01.568Z,26.15
2022-08-09T22:48:14.952Z,26.14
2022-08-09T22:50:32.186Z,26.07
2022-08-09T22:53:03.771Z,26.02
2022-08-09T22:56:06.187Z,26.03
2022-08-09T22:58:20.278Z,25.96
2022-08-09T23:01:02.072Z,25.89
2022-08-09T23:04:04.418Z,25.83
2022-08-09T23:06:30.102Z,25.85
2022-08-09T23:09:07.405Z,25.89
2022-08-09T23:11:34.826Z,25.88
2022-08-09T23:14:03.517Z,25.88
2022-08-09T23:16:31.616Z,25.88
2022-08-09T23:18:59.061Z,25.85
2022-08-09T23:21:32.631Z,25.84
2022-08-09T23:24:06.409Z,25.84
2022-08-09T23:26:37.865Z,25.88
2022-08-09T23:29:06.332Z,25.93
2022-08-09T23:31:34.289Z,25.96
2022-08-09T23:34:02.489Z,25.98
2022-08-09T23:36:31.778Z,26.01
2022-08-09T23:38:59.302Z,26.02
2022-08-09T23:41:27.907Z,26.02
2022-08-09T23:44:01.060Z,26.03
2022-08-09T23:46:29.400Z,26.03
2022-08-09T23:48:57.995Z,26.01
2022-08-09T23:51:25.543Z,26.01
2022-08-09T23:53:55.201Z,25.97
2022-08-09T23:56:52.143Z,25.95
2022-08-09T23:59:13.235Z,25.96
